Kezdőlap
METAR-TAF:

METAR-TAF

Repülőterek :

Ithaca, New York, Amerikai Egyesült Államok

földrajzi szélesség: 42-29N, földrajzi hosszúság: 076-27W, magasság: 335 m

Jelenlegi meteorológiai megfigyelések

A jelentés 37 perccel ezelõtt készült, 17:56 UTC
Déli szél 5 kt
Hőmérséklet 7°C
Páratartalom 33%
Légköri nyomás 1018 hPa
Látótávolság: 16.1 km
Derült ég

METAR: KITH 231756Z 18005KT 10SM CLR 07/M08 A3007 RMK AO2 SLP193 T00721083 10072 21072 58020

Idő: 13:33 (18:33 UTC)

Előrejelzés

A jelentés 1 órával és 8 perccel ezelõtt készült, 17:25 UTC
Az előrejelzés 23-én 18 óra UTC és 24-én 18 óra UTC között érvényes
Dél-délnyugati szél 6 kt
Látótávolság: 10 km
Derült ég

TAF: KITH 231725Z 2318/2418 20006KT P6SM SKC

Meteorológiai megfigyelések és előrejelzések több, mint 4000 repülőtéren (METAR és TAF jelentéseket).

A térképen piros és sárga pontok jelzik az elérhető meteorológiai állomásokat.

Mozgassa az egeret a pont fölött, hogy megjelenjen az állomás neve.

Azután kattintson az időjárási megfigyelések és előrejelzések megtekintéséhez.

A térkép megváltoztatása: kattintson a fekete keresztel jelölt zöld gombra ráközelítéshez, a vonallal jelölt zöld gombra távolításhoz, vagy a zöld nyilakra a szomszédos térképek eléréséhez.


METAR-TAF: